createdAt,value
2017-07-02T00:00:47.139Z,0
2017-07-02T00:01:49.206Z,0
2017-07-02T00:02:51.283Z,0
2017-07-02T00:03:53.682Z,0
2017-07-02T00:04:55.755Z,0
2017-07-02T00:05:58.171Z,0
2017-07-02T00:07:00.225Z,0
2017-07-02T00:08:02.281Z,0
2017-07-02T00:09:04.359Z,0
2017-07-02T00:10:06.761Z,0
2017-07-02T00:11:08.831Z,0
2017-07-02T00:12:10.886Z,0
2017-07-02T00:13:12.958Z,0
2017-07-02T00:14:15.024Z,0
2017-07-02T00:15:17.090Z,0
2017-07-02T00:16:19.157Z,0
2017-07-02T00:17:21.234Z,0
2017-07-02T00:18:23.304Z,0
2017-07-02T00:19:25.376Z,0
2017-07-02T00:20:27.440Z,0
2017-07-02T00:21:29.844Z,0
2017-07-02T00:22:31.910Z,0
2017-07-02T00:23:33.990Z,0
2017-07-02T00:24:36.077Z,0
2017-07-02T00:25:38.125Z,0
2017-07-02T00:26:40.197Z,0
2017-07-02T00:27:42.249Z,0
2017-07-02T00:28:44.651Z,0
2017-07-02T00:29:47.054Z,0
2017-07-02T00:30:49.120Z,0
2017-07-02T00:31:51.173Z,0
2017-07-02T00:32:53.236Z,0
2017-07-02T00:33:55.298Z,0
2017-07-02T00:34:58.044Z,0
2017-07-02T00:36:00.115Z,0
2017-07-02T00:37:02.227Z,0
2017-07-02T00:38:04.282Z,0
2017-07-02T00:39:06.348Z,0
2017-07-02T00:40:08.404Z,0
2017-07-02T00:41:10.809Z,0
2017-07-02T00:42:12.887Z,0
2017-07-02T00:43:14.959Z,0
2017-07-02T00:44:17.359Z,0
2017-07-02T00:45:19.426Z,0
2017-07-02T00:46:21.839Z,0
2017-07-02T00:47:23.891Z,0
2017-07-02T00:48:25.961Z,0
2017-07-02T00:49:28.036Z,0
2017-07-02T00:50:30.095Z,0
2017-07-02T00:51:32.159Z,0
2017-07-02T00:52:34.568Z,0
2017-07-02T00:53:36.993Z,0
2017-07-02T00:54:39.051Z,0
2017-07-02T00:55:41.115Z,0
2017-07-02T00:56:43.500Z,0
2017-07-02T00:57:45.559Z,0
2017-07-02T00:58:47.635Z,0
2017-07-02T00:59:49.681Z,0
2017-07-02T01:00:51.755Z,0
2017-07-02T01:01:54.169Z,0
2017-07-02T01:02:56.238Z,0
2017-07-02T01:03:58.305Z,0
2017-07-02T01:05:00.346Z,0
2017-07-02T01:06:02.775Z,0
2017-07-02T01:07:04.832Z,0
2017-07-02T01:08:06.875Z,0
2017-07-02T01:09:08.960Z,0
2017-07-02T01:10:11.031Z,0
2017-07-02T01:11:13.098Z,0
2017-07-02T01:12:15.204Z,0
2017-07-02T01:13:17.616Z,0
2017-07-02T01:14:19.688Z,0
2017-07-02T01:15:21.724Z,0
2017-07-02T01:16:23.778Z,0
2017-07-02T01:17:25.864Z,0
2017-07-02T01:18:28.252Z,0
2017-07-02T01:19:30.303Z,0
2017-07-02T01:20:32.369Z,0
2017-07-02T01:21:34.425Z,0
2017-07-02T01:22:36.543Z,0
2017-07-02T01:23:38.599Z,0
2017-07-02T01:24:40.680Z,0
2017-07-02T01:25:42.738Z,0
2017-07-02T01:26:44.781Z,0
2017-07-02T01:27:46.841Z,0
2017-07-02T01:28:48.921Z,0
2017-07-02T01:29:50.994Z,0
2017-07-02T01:30:53.056Z,0
2017-07-02T01:31:55.120Z,0
2017-07-02T01:32:57.174Z,0
2017-07-02T01:33:59.229Z,0
2017-07-02T01:35:01.280Z,0
2017-07-02T01:36:03.677Z,0
2017-07-02T01:37:05.729Z,0
2017-07-02T01:38:07.794Z,0
2017-07-02T01:39:10.211Z,0
2017-07-02T01:40:12.272Z,0
2017-07-02T01:41:14.360Z,0
2017-07-02T01:42:16.413Z,0
2017-07-02T01:43:18.485Z,0
2017-07-02T01:44:21.239Z,0
2017-07-02T01:45:23.647Z,0
2017-07-02T01:46:25.702Z,0
2017-07-02T01:47:27.756Z,0
2017-07-02T01:48:29.832Z,0
2017-07-02T01:49:32.587Z,0
2017-07-02T01:50:35.316Z,0
2017-07-02T01:51:37.396Z,0
2017-07-02T01:52:39.494Z,0
2017-07-02T01:53:41.553Z,0
2017-07-02T01:54:43.605Z,0
2017-07-02T01:55:45.680Z,0
2017-07-02T01:56:48.078Z,0
2017-07-02T01:57:50.125Z,0
2017-07-02T01:58:52.215Z,0
2017-07-02T01:59:54.274Z,0
2017-07-02T02:00:56.343Z,0
2017-07-02T02:01:58.409Z,4
2017-07-02T02:03:00.472Z,4
2017-07-02T02:04:02.546Z,4
2017-07-02T02:05:04.579Z,0
2017-07-02T02:06:06.647Z,0
2017-07-02T02:07:08.705Z,0
2017-07-02T02:08:10.769Z,4
2017-07-02T02:09:12.845Z,4
2017-07-02T02:10:14.945Z,4
2017-07-02T02:11:17.015Z,4
2017-07-02T02:12:19.074Z,4
2017-07-02T02:13:21.127Z,4
2017-07-02T02:14:23.191Z,8
2017-07-02T02:15:25.251Z,8
2017-07-02T02:16:27.320Z,8
2017-07-02T02:17:29.374Z,4
2017-07-02T02:18:31.438Z,8
2017-07-02T02:19:33.507Z,12
2017-07-02T02:20:35.578Z,8
2017-07-02T02:21:37.981Z,12
2017-07-02T02:22:40.061Z,16
2017-07-02T02:23:42.122Z,20
2017-07-02T02:24:44.179Z,20
2017-07-02T02:25:46.574Z,24
2017-07-02T02:26:48.968Z,24
2017-07-02T02:27:51.026Z,24
2017-07-02T02:28:53.089Z,24
2017-07-02T02:29:55.159Z,24
2017-07-02T02:30:57.233Z,24
2017-07-02T02:31:59.298Z,32
2017-07-02T02:33:01.730Z,44
2017-07-02T02:34:03.788Z,56
2017-07-02T02:35:05.840Z,64
2017-07-02T02:36:07.915Z,72
2017-07-02T02:37:10.325Z,76
2017-07-02T02:38:12.371Z,80
2017-07-02T02:39:14.437Z,80
2017-07-02T02:40:16.490Z,92
2017-07-02T02:41:18.550Z,80
2017-07-02T02:42:20.912Z,92
2017-07-02T02:43:22.967Z,116
2017-07-02T02:44:25.394Z,108
2017-07-02T02:45:27.428Z,124
2017-07-02T02:46:29.500Z,152
2017-07-02T02:47:31.595Z,160
2017-07-02T02:48:33.995Z,192
2017-07-02T02:49:36.053Z,204
2017-07-02T02:50:38.467Z,204
2017-07-02T02:51:40.529Z,220
2017-07-02T02:52:42.588Z,256
2017-07-02T02:53:44.648Z,284
2017-07-02T02:54:46.708Z,288
2017-07-02T02:55:48.764Z,252
2017-07-02T02:56:50.844Z,296
2017-07-02T02:57:52.893Z,368
2017-07-02T02:58:54.950Z,392
2017-07-02T02:59:57.695Z,380
2017-07-02T03:00:59.752Z,380
2017-07-02T03:02:01.798Z,396
2017-07-02T03:03:03.871Z,440
2017-07-02T03:04:05.927Z,484
2017-07-02T03:05:08.019Z,476
2017-07-02T03:06:10.743Z,480
2017-07-02T03:07:13.495Z,512
2017-07-02T03:08:15.559Z,556
2017-07-02T03:09:17.611Z,568
2017-07-02T03:10:19.668Z,584
2017-07-02T03:11:21.743Z,668
2017-07-02T03:12:23.791Z,752
2017-07-02T03:13:25.855Z,828
2017-07-02T03:14:27.925Z,876
2017-07-02T03:15:29.995Z,888
2017-07-02T03:16:32.079Z,1012
2017-07-02T03:17:34.165Z,920
2017-07-02T03:18:36.299Z,972
2017-07-02T03:19:38.733Z,996
2017-07-02T03:20:40.785Z,988
2017-07-02T03:21:42.846Z,1036
2017-07-02T03:22:44.898Z,1056
2017-07-02T03:23:46.957Z,1040
2017-07-02T03:24:49.025Z,1148
2017-07-02T03:25:51.069Z,1144
2017-07-02T03:26:53.135Z,1164
2017-07-02T03:27:55.554Z,1376
2017-07-02T03:28:57.964Z,1324
2017-07-02T03:30:00.004Z,1364
2017-07-02T03:31:02.076Z,1384
2017-07-02T03:32:04.144Z,1556
2017-07-02T03:33:06.203Z,1496
2017-07-02T03:34:08.272Z,1644
2017-07-02T03:35:10.334Z,1576
2017-07-02T03:36:12.421Z,1476
2017-07-02T03:37:14.465Z,1632
2017-07-02T03:38:16.532Z,1540
2017-07-02T03:39:18.608Z,1636
2017-07-02T03:40:21.021Z,1624
2017-07-02T03:41:23.077Z,1708
2017-07-02T03:42:25.137Z,1840
2017-07-02T03:43:27.200Z,1736
2017-07-02T03:44:29.256Z,1856
2017-07-02T03:45:31.707Z,1828
2017-07-02T03:46:33.777Z,1604
2017-07-02T03:47:35.839Z,1612
2017-07-02T03:48:37.904Z,1536
2017-07-02T03:49:39.958Z,1420
2017-07-02T03:50:42.354Z,1608
2017-07-02T03:51:44.430Z,1744
2017-07-02T03:52:46.494Z,1704
2017-07-02T03:53:48.557Z,1756
2017-07-02T03:54:50.619Z,2048
2017-07-02T03:55:52.684Z,1980
2017-07-02T03:56:54.746Z,2016
2017-07-02T03:57:56.807Z,2132
2017-07-02T03:58:59.594Z,2124
2017-07-02T04:00:01.657Z,2016
2017-07-02T04:01:03.700Z,1912
2017-07-02T04:02:06.091Z,1764
2017-07-02T04:03:08.154Z,1820
2017-07-02T04:04:10.559Z,2056
2017-07-02T04:05:12.619Z,1980
2017-07-02T04:06:14.693Z,1788
2017-07-02T04:07:16.756Z,1712
2017-07-02T04:08:18.828Z,2044
2017-07-02T04:09:20.885Z,2548
2017-07-02T04:10:22.958Z,2536
2017-07-02T04:11:25.020Z,3156
2017-07-02T04:12:27.079Z,3204
2017-07-02T04:13:29.138Z,3460
2017-07-02T04:14:31.200Z,3628
2017-07-02T04:15:33.257Z,3984
2017-07-02T04:16:35.316Z,4056
2017-07-02T04:17:37.399Z,3776
2017-07-02T04:18:39.472Z,3628
2017-07-02T04:19:41.523Z,4536
2017-07-02T04:20:43.589Z,3952
2017-07-02T04:21:45.653Z,4044
2017-07-02T04:22:47.726Z,4392
2017-07-02T04:23:50.112Z,4008
2017-07-02T04:24:52.210Z,4232
2017-07-02T04:25:54.266Z,4456
2017-07-02T04:26:56.371Z,4252
2017-07-02T04:27:58.438Z,4372
2017-07-02T04:29:00.499Z,5012
2017-07-02T04:30:02.924Z,5908
2017-07-02T04:31:05.100Z,5380
2017-07-02T04:32:07.183Z,5184
2017-07-02T04:33:09.651Z,5016
2017-07-02T04:34:11.709Z,6004
2017-07-02T04:35:13.780Z,5752
2017-07-02T04:36:15.853Z,5684
2017-07-02T04:37:18.280Z,5708
2017-07-02T04:38:21.048Z,5692
2017-07-02T04:39:23.477Z,6904
2017-07-02T04:40:25.594Z,6200
2017-07-02T04:41:27.680Z,6868
2017-07-02T04:42:30.089Z,6516
2017-07-02T04:43:32.182Z,6956
2017-07-02T04:44:34.238Z,7184
2017-07-02T04:45:36.338Z,6552
2017-07-02T04:46:38.430Z,6252
2017-07-02T04:47:40.874Z,6604
2017-07-02T04:48:42.955Z,6836
2017-07-02T04:49:45.010Z,8300
2017-07-02T04:50:47.438Z,8328
2017-07-02T04:51:49.487Z,8432
2017-07-02T04:52:51.905Z,9372
2017-07-02T04:53:53.993Z,9296
2017-07-02T04:54:56.096Z,9660
2017-07-02T04:55:58.187Z,9712
2017-07-02T04:57:00.258Z,10396
2017-07-02T04:58:02.672Z,10064
2017-07-02T04:59:04.771Z,9608
2017-07-02T05:00:06.856Z,9856
2017-07-02T05:01:08.940Z,9368
2017-07-02T05:02:11.348Z,9964
2017-07-02T05:03:13.471Z,9972
2017-07-02T05:04:15.524Z,9528
2017-07-02T05:05:17.995Z,10116
2017-07-02T05:06:20.086Z,9324
2017-07-02T05:07:22.166Z,9156
2017-07-02T05:08:24.285Z,8920
2017-07-02T05:09:26.351Z,9288
2017-07-02T05:10:28.412Z,9460
2017-07-02T05:11:30.475Z,10252
2017-07-02T05:12:32.544Z,9372
2017-07-02T05:13:34.620Z,8968
2017-07-02T05:14:36.684Z,7536
2017-07-02T05:15:38.752Z,6720
2017-07-02T05:16:40.837Z,8888
2017-07-02T05:17:42.901Z,9448
2017-07-02T05:18:45.035Z,8924
2017-07-02T05:19:47.474Z,10560
2017-07-02T05:20:49.612Z,11188
2017-07-02T05:21:51.683Z,11652
2017-07-02T05:22:53.807Z,9688
2017-07-02T05:23:55.861Z,9880
2017-07-02T05:24:57.979Z,11288
2017-07-02T05:26:00.087Z,11100
2017-07-02T05:27:02.195Z,9760
2017-07-02T05:28:04.254Z,8032
2017-07-02T05:29:06.309Z,8316
2017-07-02T05:30:08.381Z,7980
2017-07-02T05:31:10.810Z,10304
2017-07-02T05:32:12.974Z,10204
2017-07-02T05:33:15.062Z,10760
2017-07-02T05:34:17.119Z,10396
2017-07-02T05:35:19.186Z,10016
2017-07-02T05:36:21.256Z,11196
2017-07-02T05:37:23.404Z,11124
2017-07-02T05:38:25.476Z,10308
2017-07-02T05:39:27.537Z,11676
2017-07-02T05:40:29.669Z,12424
2017-07-02T05:41:32.080Z,11312
2017-07-02T05:42:34.145Z,11708
2017-07-02T05:43:36.269Z,12332
2017-07-02T05:44:38.339Z,11256
2017-07-02T05:45:40.754Z,11372
2017-07-02T05:46:42.814Z,11692
2017-07-02T05:47:44.878Z,11176
2017-07-02T05:48:46.952Z,12680
2017-07-02T05:49:49.013Z,13620
2017-07-02T05:50:51.434Z,14884
2017-07-02T05:51:53.583Z,12680
2017-07-02T05:52:55.647Z,11228
2017-07-02T05:53:57.723Z,9084
2017-07-02T05:54:59.825Z,8244
2017-07-02T05:56:02.253Z,8800
2017-07-02T05:57:04.309Z,9292
2017-07-02T05:58:06.380Z,9660
2017-07-02T05:59:08.435Z,8968
2017-07-02T06:00:10.525Z,7748
2017-07-02T06:01:12.597Z,8660
2017-07-02T06:02:14.715Z,7904
2017-07-02T06:03:16.776Z,6856
2017-07-02T06:04:18.842Z,7200
2017-07-02T06:05:21.239Z,8056
2017-07-02T06:06:24.008Z,11044
2017-07-02T06:07:26.066Z,9740
2017-07-02T06:08:28.140Z,8588
2017-07-02T06:09:30.200Z,6592
2017-07-02T06:10:32.270Z,6724
2017-07-02T06:11:34.338Z,6304
2017-07-02T06:12:36.415Z,7392
2017-07-02T06:13:38.488Z,10696
2017-07-02T06:14:40.924Z,11844
2017-07-02T06:15:42.969Z,11116
2017-07-02T06:16:45.381Z,8740
2017-07-02T06:17:47.464Z,8460
2017-07-02T06:18:49.523Z,9148
2017-07-02T06:19:51.601Z,10312
2017-07-02T06:20:53.705Z,9588
2017-07-02T06:21:56.104Z,8004
2017-07-02T06:22:58.169Z,10240
2017-07-02T06:24:00.237Z,13644
2017-07-02T06:25:02.291Z,14724
2017-07-02T06:26:04.363Z,13928
2017-07-02T06:27:06.429Z,15500
2017-07-02T06:28:09.232Z,18008
2017-07-02T06:29:11.315Z,18464
2017-07-02T06:30:13.376Z,17508
2017-07-02T06:31:15.456Z,16572
2017-07-02T06:32:17.538Z,16776
2017-07-02T06:33:19.632Z,17384
2017-07-02T06:34:21.721Z,18976
2017-07-02T06:35:23.782Z,17968
2017-07-02T06:36:25.849Z,16584
2017-07-02T06:37:27.939Z,14580
2017-07-02T06:38:30.010Z,15468
2017-07-02T06:39:32.073Z,13752
2017-07-02T06:40:34.180Z,11912
2017-07-02T06:41:36.577Z,11328
2017-07-02T06:42:38.646Z,13432
2017-07-02T06:43:41.052Z,16028
2017-07-02T06:44:43.820Z,18752
2017-07-02T06:45:45.911Z,20928
2017-07-02T06:46:47.956Z,22272
2017-07-02T06:47:50.039Z,21600
2017-07-02T06:48:52.116Z,21696
2017-07-02T06:49:54.223Z,22112
2017-07-02T06:50:56.303Z,21792
2017-07-02T06:51:58.365Z,21088
2017-07-02T06:53:00.445Z,19808
2017-07-02T06:54:02.523Z,19360
2017-07-02T06:55:04.581Z,19168
2017-07-02T06:56:06.699Z,20416
2017-07-02T06:57:08.762Z,21504
2017-07-02T06:58:10.819Z,23424
2017-07-02T06:59:12.897Z,24416
2017-07-02T07:00:14.977Z,24768
2017-07-02T07:01:17.393Z,23392
2017-07-02T07:02:19.814Z,21408
2017-07-02T07:03:22.218Z,20416
2017-07-02T07:04:24.295Z,21952
2017-07-02T07:05:26.340Z,23584
2017-07-02T07:06:28.417Z,23296
2017-07-02T07:07:30.486Z,23232
2017-07-02T07:08:32.562Z,23104
2017-07-02T07:09:34.969Z,21088
2017-07-02T07:10:37.034Z,18320
2017-07-02T07:11:39.142Z,16428
2017-07-02T07:12:41.207Z,17580
2017-07-02T07:13:43.280Z,19712
2017-07-02T07:14:45.698Z,20512
2017-07-02T07:15:47.768Z,21696
2017-07-02T07:16:49.839Z,23264
2017-07-02T07:17:51.921Z,26752
2017-07-02T07:18:53.986Z,27488
2017-07-02T07:19:56.405Z,24672
2017-07-02T07:20:58.828Z,23008
2017-07-02T07:22:00.905Z,20896
2017-07-02T07:23:02.980Z,16572
2017-07-02T07:24:05.381Z,14832
2017-07-02T07:25:07.459Z,14720
2017-07-02T07:26:09.902Z,15008
2017-07-02T07:29:14.150Z,16580
2017-07-02T07:30:16.227Z,14516
2017-07-02T07:31:18.647Z,12008
2017-07-02T07:32:20.733Z,14356
2017-07-02T07:33:22.807Z,12000
2017-07-02T07:34:24.881Z,9032
2017-07-02T07:35:27.288Z,6000
2017-07-02T07:36:29.367Z,6280
2017-07-02T07:37:31.447Z,7156
2017-07-02T07:38:33.530Z,7432
2017-07-02T07:39:35.601Z,8756
2017-07-02T07:40:37.670Z,14044
2017-07-02T07:41:39.755Z,14316
2017-07-02T07:42:41.834Z,18004
2017-07-02T07:43:43.905Z,18656
2017-07-02T07:44:46.318Z,14008
2017-07-02T07:45:48.407Z,10056
2017-07-02T07:46:50.475Z,10932
2017-07-02T07:47:52.547Z,11276
2017-07-02T07:48:54.627Z,10956
2017-07-02T07:49:56.725Z,13288
2017-07-02T07:50:59.137Z,15540
2017-07-02T07:52:01.226Z,15384
2017-07-02T07:53:03.303Z,10980
2017-07-02T07:54:05.383Z,7160
2017-07-02T07:55:07.452Z,4820
2017-07-02T07:56:09.564Z,5884
2017-07-02T07:57:11.640Z,6076
2017-07-02T07:58:13.719Z,7640
2017-07-02T07:59:16.161Z,10160
2017-07-02T08:00:18.250Z,12616
2017-07-02T08:01:20.667Z,13440
2017-07-02T08:02:22.750Z,14392
2017-07-02T08:03:24.829Z,15488
2017-07-02T08:04:26.953Z,15988
2017-07-02T08:05:29.022Z,16376
2017-07-02T08:06:31.111Z,15252
2017-07-02T08:07:33.184Z,14924
2017-07-02T08:08:35.262Z,13828
2017-07-02T08:09:37.335Z,11684
2017-07-02T08:10:39.408Z,11284
2017-07-02T08:11:41.486Z,8176
2017-07-02T08:12:43.564Z,9712
2017-07-02T08:13:45.664Z,8868
2017-07-02T08:14:47.750Z,8004
2017-07-02T08:15:49.825Z,7752
2017-07-02T08:16:51.894Z,11032
2017-07-02T08:17:53.977Z,11300
2017-07-02T08:18:56.068Z,7768
2017-07-02T08:19:58.501Z,9404
2017-07-02T08:21:00.911Z,9460
2017-07-02T08:22:02.997Z,11216
2017-07-02T08:23:05.080Z,14280
2017-07-02T08:24:07.165Z,13348
2017-07-02T08:25:09.253Z,13488
2017-07-02T08:26:11.342Z,13488
2017-07-02T08:27:13.413Z,17560
2017-07-02T08:28:15.486Z,17392
2017-07-02T08:29:17.555Z,14460
2017-07-02T08:30:19.654Z,15436
2017-07-02T08:31:21.729Z,16948
2017-07-02T08:32:23.788Z,15716
2017-07-02T08:33:25.886Z,14344
2017-07-02T08:34:28.314Z,17268
2017-07-02T08:35:30.399Z,21824
2017-07-02T08:36:32.503Z,20768
2017-07-02T08:37:34.583Z,19392
2017-07-02T08:38:36.994Z,18156
2017-07-02T08:39:39.068Z,16012
2017-07-02T08:40:41.142Z,15916
2017-07-02T08:41:43.569Z,12828
2017-07-02T08:42:45.645Z,9688
2017-07-02T08:43:47.736Z,8104
2017-07-02T08:44:50.151Z,7604
2017-07-02T08:45:52.615Z,5976
2017-07-02T08:46:54.701Z,6324
2017-07-02T08:47:57.113Z,6328
2017-07-02T08:48:59.210Z,7076
2017-07-02T08:50:01.292Z,7104
2017-07-02T08:51:04.054Z,7164
2017-07-02T08:52:06.130Z,7088
2017-07-02T08:53:08.208Z,7100
2017-07-02T08:54:10.298Z,6152
2017-07-02T08:55:12.371Z,7096
2017-07-02T08:56:14.439Z,8380
2017-07-02T08:57:16.522Z,7880
2017-07-02T08:58:18.616Z,8760
2017-07-02T08:59:20.702Z,8632
2017-07-02T09:00:23.109Z,9404
2017-07-02T09:01:25.291Z,9488
2017-07-02T09:02:29.585Z,11580
2017-07-02T09:03:31.654Z,14716
2017-07-02T09:04:33.726Z,14792
2017-07-02T09:05:35.805Z,13688
2017-07-02T09:06:37.875Z,13552
2017-07-02T09:07:39.952Z,14080
2017-07-02T09:08:42.055Z,13280
2017-07-02T09:09:44.161Z,12816
2017-07-02T09:10:46.272Z,11132
2017-07-02T09:11:48.375Z,10072
2017-07-02T09:12:50.444Z,8332
2017-07-02T09:13:52.531Z,11028
2017-07-02T09:14:54.625Z,11880
2017-07-02T09:15:56.714Z,11892
2017-07-02T09:16:58.791Z,12956
2017-07-02T09:18:00.862Z,12920
2017-07-02T09:19:02.931Z,12604
2017-07-02T09:20:05.010Z,10696
2017-07-02T09:21:07.084Z,10288
2017-07-02T09:22:09.154Z,10220
2017-07-02T09:23:11.256Z,11044
2017-07-02T09:24:13.338Z,10980
2017-07-02T09:25:15.413Z,10016
2017-07-02T09:26:17.835Z,12492
2017-07-02T09:27:19.928Z,11548
2017-07-02T09:28:22.018Z,9728
2017-07-02T09:29:24.084Z,10284
2017-07-02T09:30:26.168Z,11484
2017-07-02T09:31:28.250Z,12396
2017-07-02T09:32:30.332Z,13300
2017-07-02T09:33:32.420Z,10952
2017-07-02T09:34:34.482Z,9028
2017-07-02T09:35:36.549Z,10084
2017-07-02T09:36:38.640Z,10604
2017-07-02T09:37:40.709Z,10836
2017-07-02T09:38:42.782Z,10344
2017-07-02T09:39:44.862Z,10920
2017-07-02T09:40:46.945Z,13192
2017-07-02T09:41:49.035Z,10196
2017-07-02T09:42:51.153Z,10448
2017-07-02T09:43:53.579Z,9132
2017-07-02T09:44:55.672Z,8612
2017-07-02T09:45:58.125Z,9036
2017-07-02T09:47:00.198Z,8684
2017-07-02T09:48:02.271Z,8320
2017-07-02T09:49:04.357Z,9568
2017-07-02T09:50:06.801Z,8128
2017-07-02T09:51:09.251Z,8680
2017-07-02T09:52:11.326Z,9884
2017-07-02T09:53:13.793Z,9332
2017-07-02T09:54:15.873Z,10880
2017-07-02T09:55:17.951Z,10608
2017-07-02T09:56:20.030Z,11336
2017-07-02T09:57:22.104Z,10656
2017-07-02T09:58:24.216Z,9264
2017-07-02T09:59:26.346Z,6960
2017-07-02T10:00:28.411Z,9296
2017-07-02T10:01:30.481Z,8428
2017-07-02T10:02:32.536Z,9032
2017-07-02T10:04:51.643Z,7776
2017-07-02T10:05:53.646Z,7892
2017-07-02T10:06:55.661Z,7488
2017-07-02T10:07:57.662Z,8552
2017-07-02T10:08:59.663Z,8828
2017-07-02T10:10:01.687Z,6840
2017-07-02T10:11:03.683Z,9464
2017-07-02T10:12:05.689Z,10408
2017-07-02T10:13:08.068Z,9044
2017-07-02T10:14:10.426Z,9932
2017-07-02T10:15:12.441Z,13124
2017-07-02T10:16:14.436Z,14664
2017-07-02T10:17:16.460Z,14732
2017-07-02T10:18:18.465Z,13832
2017-07-02T10:19:20.464Z,12524
2017-07-02T10:20:22.478Z,15020
2017-07-02T10:21:24.539Z,12652
2017-07-02T10:22:26.550Z,10500
2017-07-02T10:23:28.552Z,11200
2017-07-02T10:24:31.226Z,13544
2017-07-02T10:25:33.239Z,10280
2017-07-02T10:26:35.250Z,9340
2017-07-02T10:27:37.257Z,10500
2017-07-02T10:28:39.264Z,9148
2017-07-02T10:29:41.266Z,9836
2017-07-02T10:30:43.277Z,9124
2017-07-02T10:31:45.284Z,10052
2017-07-02T10:32:47.296Z,10224
2017-07-02T10:33:49.654Z,8948
2017-07-02T10:34:51.665Z,10184
2017-07-02T10:35:54.019Z,9376
2017-07-02T10:36:56.029Z,9016
2017-07-02T10:37:58.041Z,10992
2017-07-02T10:39:00.053Z,9084
2017-07-02T10:40:02.402Z,7004
2017-07-02T10:41:04.409Z,8372
2017-07-02T10:42:06.747Z,7724
2017-07-02T10:43:08.759Z,7992
2017-07-02T10:44:10.760Z,8008
2017-07-02T10:45:12.782Z,7588
2017-07-02T10:46:14.784Z,9048
2017-07-02T10:47:16.793Z,9940
2017-07-02T10:48:18.792Z,9436
2017-07-02T10:49:20.798Z,7624
2017-07-02T10:50:22.827Z,6496
2017-07-02T10:51:24.879Z,6652
2017-07-02T10:52:27.216Z,7560
2017-07-02T10:53:29.221Z,6880
2017-07-02T10:54:31.227Z,11492
2017-07-02T10:55:33.236Z,10416
2017-07-02T10:56:35.250Z,16376
2017-07-02T10:57:37.256Z,14412
2017-07-02T10:58:39.273Z,17612
2017-07-02T10:59:41.268Z,20704
2017-07-02T11:00:43.278Z,16304
2017-07-02T11:01:45.292Z,15180
2017-07-02T11:02:47.293Z,19328
2017-07-02T11:03:49.297Z,16348
2017-07-02T11:04:51.310Z,13564
2017-07-02T11:05:53.662Z,16896
2017-07-02T11:06:55.671Z,18600
2017-07-02T11:07:57.687Z,14132
2017-07-02T11:08:59.721Z,8644
2017-07-02T11:10:01.726Z,11404
2017-07-02T11:11:03.738Z,8488
2017-07-02T11:12:05.751Z,11604
2017-07-02T11:13:07.756Z,7692
2017-07-02T11:14:10.099Z,5096
2017-07-02T11:15:12.114Z,7004
2017-07-02T11:16:14.113Z,7720
2017-07-02T11:17:16.123Z,8620
2017-07-02T11:18:18.474Z,6892
2017-07-02T11:19:20.480Z,13376
2017-07-02T11:20:22.488Z,22784
2017-07-02T11:21:24.496Z,20448
2017-07-02T11:22:26.504Z,18148
2017-07-02T11:23:28.513Z,19936
2017-07-02T11:24:30.511Z,20352
2017-07-02T11:25:32.864Z,22816
2017-07-02T11:26:34.882Z,22368
2017-07-02T11:27:36.880Z,24416
2017-07-02T11:28:38.892Z,31200
2017-07-02T11:29:40.899Z,37120
2017-07-02T11:30:42.910Z,43616
2017-07-02T11:31:44.909Z,50720
2017-07-02T11:32:46.919Z,96800
2017-07-02T11:33:48.937Z,110624
2017-07-02T11:34:50.944Z,91232
2017-07-02T11:35:52.946Z,67648
2017-07-02T11:36:55.641Z,55008
2017-07-02T11:37:57.648Z,35168
2017-07-02T11:38:59.659Z,35136
2017-07-02T11:40:01.660Z,28160
2017-07-02T11:41:03.675Z,20800
2017-07-02T11:42:05.698Z,16356
2017-07-02T11:43:07.710Z,26176
2017-07-02T11:44:09.705Z,24960
2017-07-02T11:45:11.712Z,17504
2017-07-02T11:46:13.722Z,15844
2017-07-02T11:47:15.751Z,20256
2017-07-02T11:48:17.756Z,25184
2017-07-02T11:49:19.769Z,25568
2017-07-02T11:50:21.788Z,22752
2017-07-02T11:51:23.782Z,21824
2017-07-02T11:52:25.789Z,22720
2017-07-02T11:53:27.798Z,19968
2017-07-02T11:54:29.801Z,15088
2017-07-02T11:55:32.145Z,15448
2017-07-02T11:56:34.192Z,18912
2017-07-02T11:57:36.202Z,14064
2017-07-02T11:58:38.217Z,14232
2017-07-02T11:59:40.566Z,20288
2017-07-02T12:00:42.576Z,19520
2017-07-02T12:01:44.587Z,17744
2017-07-02T12:02:46.596Z,17340
2017-07-02T12:03:48.624Z,20544
2017-07-02T12:04:50.638Z,23104
2017-07-02T12:05:52.663Z,25120
2017-07-02T12:06:54.671Z,25024
2017-07-02T12:07:56.680Z,25536
2017-07-02T12:08:58.689Z,26208
2017-07-02T12:10:00.697Z,28288
2017-07-02T12:11:03.045Z,30112
2017-07-02T12:12:05.052Z,31008
2017-07-02T12:13:07.070Z,32512
2017-07-02T12:14:09.419Z,34752
2017-07-02T12:15:11.427Z,37024
2017-07-02T12:16:13.812Z,37888
2017-07-02T12:17:15.823Z,35712
2017-07-02T12:18:18.187Z,37280
2017-07-02T12:19:20.190Z,38688
2017-07-02T12:20:22.537Z,37824
2017-07-02T12:21:24.539Z,33440
2017-07-02T12:22:26.551Z,27392
2017-07-02T12:23:28.553Z,30144
2017-07-02T12:24:30.905Z,26848
2017-07-02T12:25:32.917Z,26720
2017-07-02T12:26:35.264Z,25728
2017-07-02T12:27:37.280Z,25664
2017-07-02T12:28:39.291Z,24928
2017-07-02T12:29:41.328Z,28224
2017-07-02T12:30:43.345Z,28544
2017-07-02T12:31:45.340Z,35328
2017-07-02T12:32:47.360Z,38016
2017-07-02T12:33:49.364Z,38080
2017-07-02T12:34:51.759Z,45152
2017-07-02T12:35:53.769Z,53696
2017-07-02T12:36:55.785Z,65792
2017-07-02T12:37:57.806Z,74528
2017-07-02T12:38:59.802Z,81312
2017-07-02T12:40:01.817Z,52544
2017-07-02T12:41:03.834Z,41952
2017-07-02T12:42:05.837Z,34112
2017-07-02T12:43:07.854Z,26720
2017-07-02T12:44:09.870Z,21152
2017-07-02T12:45:11.872Z,20640
2017-07-02T12:46:13.896Z,27072
2017-07-02T12:47:15.898Z,38880
2017-07-02T12:48:17.916Z,40576
2017-07-02T12:49:19.940Z,39456
2017-07-02T12:50:22.284Z,37312
2017-07-02T12:51:24.306Z,37952
2017-07-02T12:52:26.315Z,36288
2017-07-02T12:53:28.324Z,33696
2017-07-02T12:54:30.340Z,31712
2017-07-02T12:55:32.687Z,31360
2017-07-02T12:56:34.702Z,29696
2017-07-02T12:57:36.721Z,22368
2017-07-02T12:58:38.729Z,20288
2017-07-02T12:59:40.745Z,20224
2017-07-02T13:00:42.765Z,25824
2017-07-02T13:01:44.788Z,34688
2017-07-02T13:02:46.825Z,34176
2017-07-02T13:03:49.177Z,38144
2017-07-02T13:04:51.179Z,36960
2017-07-02T13:05:53.554Z,39296
2017-07-02T13:06:55.560Z,41216
2017-07-02T13:07:57.590Z,51168
2017-07-02T13:08:59.612Z,48480
2017-07-02T13:10:01.641Z,64864
2017-07-02T13:11:04.005Z,61312
2017-07-02T13:12:06.011Z,51168
2017-07-02T13:13:08.029Z,36256
2017-07-02T13:14:10.397Z,57472
2017-07-02T13:15:12.405Z,63232
2017-07-02T13:16:14.419Z,36800
2017-07-02T13:17:16.438Z,65024
2017-07-02T13:18:18.799Z,53280
2017-07-02T13:19:20.812Z,43136
2017-07-02T13:20:22.820Z,25664
2017-07-02T13:21:24.850Z,22368
2017-07-02T13:22:26.868Z,22976
2017-07-02T13:23:28.891Z,30336
2017-07-02T13:24:31.252Z,33920
2017-07-02T13:25:33.283Z,30368
2017-07-02T13:26:35.293Z,25216
2017-07-02T13:27:37.652Z,27520
2017-07-02T13:28:40.342Z,37152
2017-07-02T13:29:43.385Z,37984
2017-07-02T13:30:46.083Z,37696
2017-07-02T13:31:48.103Z,52864
2017-07-02T13:32:50.125Z,52064
2017-07-02T13:33:52.154Z,67520
2017-07-02T13:34:54.159Z,52192
2017-07-02T13:35:56.515Z,44192
2017-07-02T13:36:58.534Z,38400
2017-07-02T13:38:00.903Z,41504
2017-07-02T13:39:03.274Z,33920
2017-07-02T13:40:05.625Z,33152
2017-07-02T13:41:07.998Z,32288
2017-07-02T13:42:10.015Z,48672
2017-07-02T13:43:12.369Z,80064
2017-07-02T13:44:14.386Z,71776
2017-07-02T13:45:16.406Z,45536
2017-07-02T13:46:18.432Z,50784
2017-07-02T13:47:20.441Z,49600
2017-07-02T13:48:22.462Z,51872
2017-07-02T13:49:24.486Z,96704
2017-07-02T13:50:26.502Z,40448
2017-07-02T13:51:28.519Z,113824
2017-07-02T13:52:31.226Z,128320
2017-07-02T13:53:33.259Z,51232
2017-07-02T13:54:35.282Z,138304